createdAt,value
2023-05-11T00:00:08.424Z,14.40
2023-05-11T00:05:14.021Z,14.40
2023-05-11T00:10:18.278Z,14.40
2023-05-11T00:15:24.128Z,14.40
2023-05-11T00:20:28.234Z,14.40
2023-05-11T00:25:32.295Z,14.40
2023-05-11T00:30:37.687Z,14.30
2023-05-11T00:35:42.952Z,14.30
2023-05-11T00:40:47.181Z,14.30
2023-05-11T00:45:53.584Z,14.30
2023-05-11T00:50:57.776Z,14.30
2023-05-11T00:56:02.635Z,14.30
2023-05-11T01:01:08.336Z,14.30
2023-05-11T01:06:21.722Z,14.20
2023-05-11T01:11:37.041Z,14.20
2023-05-11T01:16:47.300Z,14.20
2023-05-11T01:21:53.832Z,14.20
2023-05-11T01:27:38.511Z,14.20
2023-05-11T01:32:45.867Z,14.20
2023-05-11T01:37:53.065Z,14.20
2023-05-11T01:43:03.346Z,14.20
2023-05-11T01:48:14.748Z,14.10
2023-05-11T01:53:20.835Z,14.10
2023-05-11T01:58:27.092Z,14.10
2023-05-11T02:03:34.714Z,14.10
2023-05-11T02:08:40.704Z,14.10
2023-05-11T02:13:47.550Z,14.10
2023-05-11T02:18:53.318Z,14.10
2023-05-11T02:23:58.918Z,14.10
2023-05-11T02:29:03.005Z,14.10
2023-05-11T02:34:20.955Z,14.00
2023-05-11T02:39:33.884Z,14.00
2023-05-11T02:44:39.456Z,14.00
2023-05-11T02:49:47.119Z,14.00
2023-05-11T02:54:52.813Z,14.00
2023-05-11T02:59:57.751Z,14.00
2023-05-11T03:05:04.744Z,14.00
2023-05-11T03:10:10.103Z,14.00
2023-05-11T03:15:17.458Z,14.00
2023-05-11T03:20:26.166Z,14.00
2023-05-11T03:25:30.648Z,13.90
2023-05-11T03:30:35.910Z,13.90
2023-05-11T03:35:44.518Z,13.90
2023-05-11T03:40:50.820Z,13.80
2023-05-11T03:45:56.837Z,13.80
2023-05-11T03:51:06.262Z,13.80
2023-05-11T03:56:10.578Z,13.80
2023-05-11T04:01:15.122Z,13.80
2023-05-11T04:06:21.125Z,13.80
2023-05-11T04:11:37.453Z,13.80
2023-05-11T04:16:41.634Z,13.80
2023-05-11T04:21:47.792Z,13.80
2023-05-11T04:26:57.458Z,13.90
2023-05-11T04:32:01.655Z,13.90
2023-05-11T04:37:08.224Z,13.80
2023-05-11T04:42:13.738Z,13.90
2023-05-11T04:47:19.500Z,13.90
2023-05-11T04:52:25.694Z,13.90
2023-05-11T04:57:30.122Z,13.90
2023-05-11T05:02:34.884Z,13.90
2023-05-11T05:07:40.312Z,13.90
2023-05-11T05:12:44.355Z,13.90
2023-05-11T05:17:48.546Z,13.90
2023-05-11T05:22:55.316Z,14.00
2023-05-11T05:27:59.497Z,14.00
2023-05-11T05:33:05.180Z,14.00
2023-05-11T05:38:12.812Z,14.00
2023-05-11T05:43:17.024Z,14.00
2023-05-11T05:48:21.269Z,14.00
2023-05-11T05:53:27.198Z,14.00
2023-05-11T05:58:32.286Z,14.00
2023-05-11T06:03:36.813Z,14.00
2023-05-11T06:08:43.513Z,13.90
2023-05-11T06:13:47.677Z,14.00
2023-05-11T06:18:52.338Z,13.90
2023-05-11T06:23:57.913Z,13.90
2023-05-11T06:29:04.134Z,13.90
2023-05-11T06:34:09.382Z,13.90
2023-05-11T06:39:16.139Z,13.90
2023-05-11T06:44:20.628Z,13.90
2023-05-11T06:49:29.413Z,13.80
2023-05-11T06:54:35.325Z,13.90
2023-05-11T06:59:39.787Z,13.90
2023-05-11T07:04:43.843Z,13.90
2023-05-11T07:09:49.290Z,13.90
2023-05-11T07:14:53.348Z,13.90
2023-05-11T07:19:57.450Z,13.90
2023-05-11T07:25:03.277Z,14.00
2023-05-11T07:30:08.863Z,14.10
2023-05-11T07:35:12.902Z,14.10
2023-05-11T07:40:18.701Z,14.10
2023-05-11T07:45:23.113Z,14.10
2023-05-11T07:50:27.578Z,14.10
2023-05-11T07:55:33.453Z,14.10
2023-05-11T08:00:37.707Z,14.10
2023-05-11T08:05:41.744Z,14.00
2023-05-11T08:10:47.161Z,14.00
2023-05-11T08:15:51.204Z,13.90
2023-05-11T08:20:55.382Z,13.90
2023-05-11T08:26:01.178Z,13.90
2023-05-11T08:31:05.799Z,13.80
2023-05-11T08:36:11.336Z,13.80
2023-05-11T08:41:16.764Z,13.80
2023-05-11T08:46:27.161Z,13.90
2023-05-11T08:51:32.872Z,13.80
2023-05-11T08:56:39.833Z,13.90
2023-05-11T09:01:43.823Z,13.90
2023-05-11T09:06:47.896Z,13.90
2023-05-11T09:11:55.377Z,14.00
2023-05-11T09:16:59.431Z,14.00
2023-05-11T09:22:03.776Z,14.10
2023-05-11T09:27:10.672Z,14.10
2023-05-11T09:32:15.447Z,14.20
2023-05-11T09:37:20.817Z,14.20
2023-05-11T09:42:26.254Z,14.30
2023-05-11T09:47:40.665Z,14.30
2023-05-11T09:52:52.628Z,14.40
2023-05-11T09:58:00.048Z,14.50
2023-05-11T10:03:07.173Z,14.60
2023-05-11T10:08:11.702Z,14.60
2023-05-11T10:13:17.912Z,14.70
2023-05-11T10:18:22.186Z,14.70
2023-05-11T10:23:27.474Z,14.80
2023-05-11T10:28:33.186Z,14.90
2023-05-11T10:33:37.890Z,15.00
2023-05-11T10:38:41.897Z,15.00
2023-05-11T10:44:34.214Z,15.00
2023-05-11T10:49:58.591Z,15.10
2023-05-11T10:55:12.910Z,15.10
2023-05-11T11:01:09.459Z,15.10
2023-05-11T11:06:23.907Z,15.20
2023-05-11T11:11:37.013Z,15.50
2023-05-11T11:17:24.823Z,15.60
2023-05-11T11:22:47.240Z,15.70
2023-05-11T11:28:00.067Z,16.00
2023-05-11T11:33:34.595Z,16.30
2023-05-11T11:39:00.157Z,16.70
2023-05-11T11:44:05.335Z,17.00
2023-05-11T11:49:11.268Z,17.00
2023-05-11T11:54:38.311Z,16.90
2023-05-11T11:59:48.305Z,17.10
2023-05-11T12:04:58.862Z,17.20
2023-05-11T12:10:05.040Z,17.50
2023-05-11T12:15:10.048Z,17.80
2023-05-11T12:20:18.365Z,18.00
2023-05-11T12:25:23.649Z,18.00
2023-05-11T12:30:31.266Z,18.00
2023-05-11T12:35:38.964Z,18.10
2023-05-11T12:40:49.876Z,18.10
2023-05-11T12:45:53.984Z,18.10
2023-05-11T12:50:59.371Z,18.00
2023-05-11T12:56:04.750Z,17.90
2023-05-11T13:01:09.726Z,17.90
2023-05-11T13:06:22.014Z,17.90
2023-05-11T13:11:27.495Z,18.10
2023-05-11T13:16:33.691Z,18.20
2023-05-11T13:21:39.514Z,18.30
2023-05-11T13:26:43.554Z,18.20
2023-05-11T13:31:50.093Z,18.20
2023-05-11T13:36:55.647Z,18.20
2023-05-11T13:41:59.658Z,18.20
2023-05-11T13:47:03.819Z,18.30
2023-05-11T13:52:11.054Z,18.40
2023-05-11T13:57:15.290Z,18.30
2023-05-11T14:02:19.579Z,18.20
2023-05-11T14:07:35.587Z,18.20
2023-05-11T14:12:47.336Z,18.10
2023-05-11T14:17:51.485Z,18.10
2023-05-11T14:22:57.214Z,18.00
2023-05-11T14:28:01.191Z,18.00
2023-05-11T14:33:05.614Z,17.90
2023-05-11T14:38:11.135Z,17.80
2023-05-11T14:43:15.180Z,17.60
2023-05-11T14:48:19.214Z,17.40
2023-05-11T14:53:25.078Z,17.30
2023-05-11T14:58:29.387Z,17.20
2023-05-11T15:03:33.633Z,17.10
2023-05-11T15:08:39.109Z,17.00
2023-05-11T15:13:43.308Z,17.00
2023-05-11T15:18:47.493Z,16.90
2023-05-11T15:23:52.953Z,16.80
2023-05-11T15:28:57.085Z,16.80
2023-05-11T15:34:01.294Z,16.70
2023-05-11T15:44:12.859Z,16.70
2023-05-11T15:49:17.004Z,16.70
2023-05-11T15:54:22.408Z,16.60
2023-05-11T15:59:26.557Z,16.60
2023-05-11T16:04:30.552Z,16.60
2023-05-11T16:09:36.044Z,16.60
2023-05-11T16:14:40.182Z,16.50
2023-05-11T16:19:44.253Z,16.50
2023-05-11T16:24:49.674Z,16.40
2023-05-11T16:29:53.749Z,16.30
2023-05-11T16:34:57.839Z,16.30
2023-05-11T16:40:04.765Z,16.20
2023-05-11T16:45:09.300Z,16.20
2023-05-11T16:50:14.784Z,16.10
2023-05-11T16:55:21.373Z,16.00
2023-05-11T17:00:26.569Z,16.00
2023-05-11T17:05:30.604Z,15.90
2023-05-11T17:10:36.192Z,15.90
2023-05-11T17:15:40.234Z,15.80
2023-05-11T17:20:44.228Z,15.80
2023-05-11T17:25:49.845Z,15.80
2023-05-11T17:30:54.291Z,15.70
2023-05-11T17:35:58.503Z,15.70
2023-05-11T17:41:05.959Z,15.60
2023-05-11T17:46:10.123Z,15.60
2023-05-11T17:51:14.892Z,15.60
2023-05-11T17:56:20.471Z,15.60
2023-05-11T18:01:24.828Z,15.60
2023-05-11T18:06:29.097Z,15.60
2023-05-11T18:11:34.742Z,15.60
2023-05-11T18:16:39.406Z,15.60
2023-05-11T18:21:43.425Z,15.60
2023-05-11T18:26:48.875Z,15.60
2023-05-11T18:31:53.402Z,15.60
2023-05-11T18:36:57.585Z,15.60
2023-05-11T18:42:03.282Z,15.60
2023-05-11T18:47:08.011Z,15.60
2023-05-11T18:52:12.733Z,15.50
2023-05-11T18:57:20.206Z,15.50
2023-05-11T19:02:24.797Z,15.50
2023-05-11T19:07:28.989Z,15.50
2023-05-11T19:12:34.437Z,15.50
2023-05-11T19:17:38.599Z,15.50
2023-05-11T19:22:42.873Z,15.40
2023-05-11T19:27:48.339Z,15.40
2023-05-11T19:32:52.427Z,15.40
2023-05-11T19:37:56.712Z,15.40
2023-05-11T19:43:02.181Z,15.40
2023-05-11T19:48:06.813Z,15.30
2023-05-11T19:53:11.287Z,15.30
2023-05-11T19:58:17.409Z,15.30
2023-05-11T20:03:21.850Z,15.30
2023-05-11T20:08:26.166Z,15.20
2023-05-11T20:13:31.579Z,15.20
2023-05-11T20:18:35.765Z,15.20
2023-05-11T20:23:40.402Z,15.20
2023-05-11T20:28:45.823Z,15.20
2023-05-11T20:38:56.806Z,15.20
2023-05-11T20:44:02.339Z,15.20
2023-05-11T20:49:06.630Z,15.20
2023-05-11T20:54:11.100Z,15.10
2023-05-11T21:04:23.757Z,15.10
2023-05-11T21:09:27.741Z,15.20
2023-05-11T21:14:33.379Z,15.20
2023-05-11T21:19:37.554Z,15.20
2023-05-11T21:24:42.809Z,15.20
2023-05-11T21:29:48.249Z,15.20
2023-05-11T21:34:52.442Z,15.20
2023-05-11T21:39:56.710Z,15.20
2023-05-11T21:45:02.349Z,15.20
2023-05-11T21:50:08.991Z,15.20
2023-05-11T21:55:12.995Z,15.20
2023-05-11T22:00:22.539Z,15.10
2023-05-11T22:05:27.269Z,15.10
2023-05-11T22:10:31.309Z,15.10
2023-05-11T22:15:36.851Z,15.10
2023-05-11T22:20:40.913Z,15.10
2023-05-11T22:25:44.914Z,15.00
2023-05-11T22:30:52.959Z,15.00
2023-05-11T22:35:57.480Z,15.00
2023-05-11T22:41:01.743Z,15.00
2023-05-11T22:46:07.394Z,15.00
2023-05-11T22:51:11.486Z,15.00
2023-05-11T22:56:16.615Z,15.00
2023-05-11T23:01:22.088Z,14.90
2023-05-11T23:06:26.507Z,14.90
2023-05-11T23:11:30.501Z,14.90
2023-05-11T23:16:35.933Z,14.90
2023-05-11T23:21:39.968Z,14.90
2023-05-11T23:26:43.940Z,14.90
2023-05-11T23:31:51.107Z,14.90
2023-05-11T23:36:55.257Z,14.90
2023-05-11T23:41:59.249Z,14.80
2023-05-11T23:47:04.703Z,14.80
2023-05-11T23:52:09.553Z,14.80
2023-05-11T23:57:13.581Z,14.80
